sensor_id;sensor_type;location;lat;lon;timestamp;P1;durP1;ratioP1;P2;durP2;ratioP2
41059;SDS011;26811;53.160;8.202;2023-11-19T00:02:51;55.25;;;23.58;;
41059;SDS011;26811;53.160;8.202;2023-11-19T00:07:52;54.25;;;23.42;;
41059;SDS011;26811;53.160;8.202;2023-11-19T00:12:52;54.70;;;23.33;;
41059;SDS011;26811;53.160;8.202;2023-11-19T00:17:53;62.38;;;25.25;;
41059;SDS011;26811;53.160;8.202;2023-11-19T00:22:53;56.03;;;25.02;;
41059;SDS011;26811;53.160;8.202;2023-11-19T00:27:54;65.00;;;25.73;;
41059;SDS011;26811;53.160;8.202;2023-11-19T00:32:56;54.10;;;24.40;;
41059;SDS011;26811;53.160;8.202;2023-11-19T00:37:56;50.28;;;23.17;;
41059;SDS011;26811;53.160;8.202;2023-11-19T00:42:57;50.67;;;21.90;;
41059;SDS011;26811;53.160;8.202;2023-11-19T00:47:58;50.88;;;22.00;;
41059;SDS011;26811;53.160;8.202;2023-11-19T00:53:02;52.83;;;22.30;;
41059;SDS011;26811;53.160;8.202;2023-11-19T00:58:03;52.25;;;22.15;;
41059;SDS011;26811;53.160;8.202;2023-11-19T01:03:04;54.97;;;22.52;;
41059;SDS011;26811;53.160;8.202;2023-11-19T01:08:05;60.72;;;22.55;;
41059;SDS011;26811;53.160;8.202;2023-11-19T01:13:06;53.35;;;22.27;;
41059;SDS011;26811;53.160;8.202;2023-11-19T01:18:07;40.03;;;17.83;;
41059;SDS011;26811;53.160;8.202;2023-11-19T01:23:09;42.10;;;17.02;;
41059;SDS011;26811;53.160;8.202;2023-11-19T01:28:09;39.35;;;17.88;;
41059;SDS011;26811;53.160;8.202;2023-11-19T01:33:10;43.40;;;18.20;;
41059;SDS011;26811;53.160;8.202;2023-11-19T01:38:10;53.35;;;19.50;;
41059;SDS011;26811;53.160;8.202;2023-11-19T01:43:11;64.18;;;22.90;;
41059;SDS011;26811;53.160;8.202;2023-11-19T01:48:31;61.78;;;23.00;;
41059;SDS011;26811;53.160;8.202;2023-11-19T01:53:34;75.20;;;26.25;;
41059;SDS011;26811;53.160;8.202;2023-11-19T01:58:38;60.42;;;23.27;;
41059;SDS011;26811;53.160;8.202;2023-11-19T02:03:40;62.28;;;23.80;;
41059;SDS011;26811;53.160;8.202;2023-11-19T02:08:41;59.83;;;21.55;;
41059;SDS011;26811;53.160;8.202;2023-11-19T02:13:43;56.47;;;20.67;;
41059;SDS011;26811;53.160;8.202;2023-11-19T02:18:44;70.82;;;23.77;;
41059;SDS011;26811;53.160;8.202;2023-11-19T02:23:45;102.53;;;32.05;;
41059;SDS011;26811;53.160;8.202;2023-11-19T02:28:45;87.72;;;27.52;;
41059;SDS011;26811;53.160;8.202;2023-11-19T02:33:46;85.20;;;27.52;;
41059;SDS011;26811;53.160;8.202;2023-11-19T02:38:50;61.92;;;21.92;;
41059;SDS011;26811;53.160;8.202;2023-11-19T02:43:50;83.68;;;26.20;;
41059;SDS011;26811;53.160;8.202;2023-11-19T02:48:51;76.45;;;26.15;;
41059;SDS011;26811;53.160;8.202;2023-11-19T02:53:51;75.55;;;26.15;;
41059;SDS011;26811;53.160;8.202;2023-11-19T02:58:52;85.40;;;30.75;;
41059;SDS011;26811;53.160;8.202;2023-11-19T03:03:53;69.47;;;24.33;;
41059;SDS011;26811;53.160;8.202;2023-11-19T03:08:57;76.82;;;23.90;;
41059;SDS011;26811;53.160;8.202;2023-11-19T03:13:58;69.18;;;21.85;;
41059;SDS011;26811;53.160;8.202;2023-11-19T03:18:58;63.15;;;21.88;;
41059;SDS011;26811;53.160;8.202;2023-11-19T03:24:00;67.32;;;23.10;;
41059;SDS011;26811;53.160;8.202;2023-11-19T03:29:01;86.53;;;22.00;;
41059;SDS011;26811;53.160;8.202;2023-11-19T03:34:01;66.38;;;19.70;;
41059;SDS011;26811;53.160;8.202;2023-11-19T03:39:02;91.20;;;21.40;;
41059;SDS011;26811;53.160;8.202;2023-11-19T03:44:03;78.80;;;19.60;;
41059;SDS011;26811;53.160;8.202;2023-11-19T03:49:04;70.88;;;19.27;;
41059;SDS011;26811;53.160;8.202;2023-11-19T03:54:06;82.03;;;20.17;;
41059;SDS011;26811;53.160;8.202;2023-11-19T03:59:07;79.35;;;20.33;;
41059;SDS011;26811;53.160;8.202;2023-11-19T04:04:09;66.60;;;18.00;;
41059;SDS011;26811;53.160;8.202;2023-11-19T04:09:10;81.63;;;18.48;;
41059;SDS011;26811;53.160;8.202;2023-11-19T04:14:11;71.80;;;18.52;;
41059;SDS011;26811;53.160;8.202;2023-11-19T04:19:11;77.03;;;17.83;;
41059;SDS011;26811;53.160;8.202;2023-11-19T04:24:12;69.38;;;16.90;;
41059;SDS011;26811;53.160;8.202;2023-11-19T04:29:14;82.05;;;16.08;;
41059;SDS011;26811;53.160;8.202;2023-11-19T04:34:19;79.15;;;14.38;;
41059;SDS011;26811;53.160;8.202;2023-11-19T04:39:20;75.22;;;14.18;;
41059;SDS011;26811;53.160;8.202;2023-11-19T04:44:21;74.25;;;14.18;;
41059;SDS011;26811;53.160;8.202;2023-11-19T04:49:22;66.53;;;13.40;;
41059;SDS011;26811;53.160;8.202;2023-11-19T04:54:22;64.85;;;12.65;;
41059;SDS011;26811;53.160;8.202;2023-11-19T04:59:23;79.65;;;13.30;;
41059;SDS011;26811;53.160;8.202;2023-11-19T05:04:23;80.63;;;12.77;;
41059;SDS011;26811;53.160;8.202;2023-11-19T05:09:24;64.35;;;12.40;;
41059;SDS011;26811;53.160;8.202;2023-11-19T05:14:25;71.00;;;11.65;;
41059;SDS011;26811;53.160;8.202;2023-11-19T05:19:25;78.10;;;10.73;;
41059;SDS011;26811;53.160;8.202;2023-11-19T05:24:26;68.68;;;10.27;;
41059;SDS011;26811;53.160;8.202;2023-11-19T05:29:27;59.38;;;9.68;;
41059;SDS011;26811;53.160;8.202;2023-11-19T05:34:28;81.65;;;10.90;;
41059;SDS011;26811;53.160;8.202;2023-11-19T05:39:29;66.20;;;8.48;;
41059;SDS011;26811;53.160;8.202;2023-11-19T05:44:29;70.65;;;8.82;;
41059;SDS011;26811;53.160;8.202;2023-11-19T05:49:30;67.85;;;8.02;;
41059;SDS011;26811;53.160;8.202;2023-11-19T05:54:30;68.15;;;7.25;;
41059;SDS011;26811;53.160;8.202;2023-11-19T05:59:33;63.97;;;6.72;;
41059;SDS011;26811;53.160;8.202;2023-11-19T06:04:34;65.82;;;8.00;;
41059;SDS011;26811;53.160;8.202;2023-11-19T06:09:34;60.83;;;7.45;;
41059;SDS011;26811;53.160;8.202;2023-11-19T06:14:35;56.72;;;6.45;;
41059;SDS011;26811;53.160;8.202;2023-11-19T06:19:36;51.78;;;7.25;;
41059;SDS011;26811;53.160;8.202;2023-11-19T06:24:36;61.17;;;7.20;;
41059;SDS011;26811;53.160;8.202;2023-11-19T06:29:37;69.18;;;6.72;;
41059;SDS011;26811;53.160;8.202;2023-11-19T06:34:38;73.35;;;7.90;;
41059;SDS011;26811;53.160;8.202;2023-11-19T06:39:38;76.88;;;7.80;;
41059;SDS011;26811;53.160;8.202;2023-11-19T06:44:39;72.63;;;8.60;;
41059;SDS011;26811;53.160;8.202;2023-11-19T06:49:39;71.60;;;8.43;;
41059;SDS011;26811;53.160;8.202;2023-11-19T06:54:40;69.45;;;7.93;;
41059;SDS011;26811;53.160;8.202;2023-11-19T06:59:40;77.97;;;8.70;;
41059;SDS011;26811;53.160;8.202;2023-11-19T07:04:42;66.43;;;8.18;;
41059;SDS011;26811;53.160;8.202;2023-11-19T07:09:42;71.80;;;8.43;;
41059;SDS011;26811;53.160;8.202;2023-11-19T07:14:43;75.03;;;8.02;;
41059;SDS011;26811;53.160;8.202;2023-11-19T07:19:43;73.72;;;7.47;;
41059;SDS011;26811;53.160;8.202;2023-11-19T07:24:44;68.53;;;7.28;;
41059;SDS011;26811;53.160;8.202;2023-11-19T07:29:44;77.75;;;7.00;;
41059;SDS011;26811;53.160;8.202;2023-11-19T07:34:46;66.85;;;7.15;;
41059;SDS011;26811;53.160;8.202;2023-11-19T07:39:46;66.30;;;6.43;;
41059;SDS011;26811;53.160;8.202;2023-11-19T07:44:47;66.13;;;7.13;;
41059;SDS011;26811;53.160;8.202;2023-11-19T07:49:48;66.60;;;7.40;;
41059;SDS011;26811;53.160;8.202;2023-11-19T07:54:48;60.40;;;7.82;;
41059;SDS011;26811;53.160;8.202;2023-11-19T07:59:49;77.70;;;7.65;;
41059;SDS011;26811;53.160;8.202;2023-11-19T08:04:49;63.80;;;6.90;;
41059;SDS011;26811;53.160;8.202;2023-11-19T08:09:51;62.43;;;6.77;;
41059;SDS011;26811;53.160;8.202;2023-11-19T08:14:52;71.95;;;7.50;;
41059;SDS011;26811;53.160;8.202;2023-11-19T08:19:53;64.78;;;7.15;;
41059;SDS011;26811;53.160;8.202;2023-11-19T08:24:53;60.67;;;7.75;;
41059;SDS011;26811;53.160;8.202;2023-11-19T08:29:54;71.55;;;7.25;;
41059;SDS011;26811;53.160;8.202;2023-11-19T08:34:58;68.32;;;6.43;;
41059;SDS011;26811;53.160;8.202;2023-11-19T08:39:58;57.10;;;6.53;;
41059;SDS011;26811;53.160;8.202;2023-11-19T08:44:59;61.67;;;6.53;;
41059;SDS011;26811;53.160;8.202;2023-11-19T08:49:59;64.20;;;7.07;;
41059;SDS011;26811;53.160;8.202;2023-11-19T08:55:00;65.38;;;6.82;;
41059;SDS011;26811;53.160;8.202;2023-11-19T09:00:01;63.90;;;7.00;;
41059;SDS011;26811;53.160;8.202;2023-11-19T09:05:03;68.97;;;7.28;;
41059;SDS011;26811;53.160;8.202;2023-11-19T09:10:07;57.78;;;5.90;;
41059;SDS011;26811;53.160;8.202;2023-11-19T09:15:08;55.55;;;5.97;;
41059;SDS011;26811;53.160;8.202;2023-11-19T09:20:10;64.80;;;6.53;;
41059;SDS011;26811;53.160;8.202;2023-11-19T09:25:14;56.38;;;6.10;;
41059;SDS011;26811;53.160;8.202;2023-11-19T09:30:16;61.03;;;6.90;;
41059;SDS011;26811;53.160;8.202;2023-11-19T09:35:17;55.63;;;6.63;;
41059;SDS011;26811;53.160;8.202;2023-11-19T09:40:18;53.95;;;6.68;;
41059;SDS011;26811;53.160;8.202;2023-11-19T09:45:19;58.95;;;6.05;;
41059;SDS011;26811;53.160;8.202;2023-11-19T09:50:21;58.15;;;6.40;;
41059;SDS011;26811;53.160;8.202;2023-11-19T09:55:22;56.33;;;6.28;;
41059;SDS011;26811;53.160;8.202;2023-11-19T10:00:22;65.28;;;6.80;;
41059;SDS011;26811;53.160;8.202;2023-11-19T10:05:23;56.10;;;6.85;;
41059;SDS011;26811;53.160;8.202;2023-11-19T10:10:24;64.32;;;6.68;;
41059;SDS011;26811;53.160;8.202;2023-11-19T10:15:25;63.97;;;6.75;;
41059;SDS011;26811;53.160;8.202;2023-11-19T10:20:26;68.43;;;7.47;;
41059;SDS011;26811;53.160;8.202;2023-11-19T10:25:27;76.70;;;7.70;;
41059;SDS011;26811;53.160;8.202;2023-11-19T10:30:29;70.88;;;7.22;;
41059;SDS011;26811;53.160;8.202;2023-11-19T10:35:31;65.85;;;6.55;;
41059;SDS011;26811;53.160;8.202;2023-11-19T10:40:39;69.73;;;7.43;;
41059;SDS011;26811;53.160;8.202;2023-11-19T10:45:40;53.50;;;6.80;;
41059;SDS011;26811;53.160;8.202;2023-11-19T10:50:42;58.03;;;7.40;;
41059;SDS011;26811;53.160;8.202;2023-11-19T10:55:45;60.17;;;6.00;;
41059;SDS011;26811;53.160;8.202;2023-11-19T11:00:48;76.25;;;7.97;;
41059;SDS011;26811;53.160;8.202;2023-11-19T11:05:53;66.20;;;6.65;;
41059;SDS011;26811;53.160;8.202;2023-11-19T11:10:54;56.78;;;6.30;;
41059;SDS011;26811;53.160;8.202;2023-11-19T11:15:55;65.93;;;7.15;;
41059;SDS011;26811;53.160;8.202;2023-11-19T11:21:02;60.70;;;6.60;;
41059;SDS011;26811;53.160;8.202;2023-11-19T11:37:11;106.25;;;25.55;;
41059;SDS011;26811;53.160;8.202;2023-11-19T11:47:20;128.20;;;32.40;;
41059;SDS011;26811;53.160;8.202;2023-11-19T11:52:20;78.32;;;17.30;;
41059;SDS011;26811;53.160;8.202;2023-11-19T11:57:21;63.42;;;8.75;;
41059;SDS011;26811;53.160;8.202;2023-11-19T12:02:25;59.13;;;11.43;;
41059;SDS011;26811;53.160;8.202;2023-11-19T12:07:26;50.08;;;6.72;;
41059;SDS011;26811;53.160;8.202;2023-11-19T12:12:27;52.50;;;6.22;;
41059;SDS011;26811;53.160;8.202;2023-11-19T12:17:36;56.10;;;5.93;;
41059;SDS011;26811;53.160;8.202;2023-11-19T12:22:41;47.05;;;5.38;;
41059;SDS011;26811;53.160;8.202;2023-11-19T12:27:46;44.42;;;4.82;;
41059;SDS011;26811;53.160;8.202;2023-11-19T12:32:48;39.90;;;5.72;;
41059;SDS011;26811;53.160;8.202;2023-11-19T12:37:52;41.65;;;4.32;;
41059;SDS011;26811;53.160;8.202;2023-11-19T12:42:53;35.05;;;4.43;;
41059;SDS011;26811;53.160;8.202;2023-11-19T12:48:06;28.52;;;3.60;;
41059;SDS011;26811;53.160;8.202;2023-11-19T12:53:11;23.75;;;4.10;;
41059;SDS011;26811;53.160;8.202;2023-11-19T13:03:32;16.95;;;2.53;;
41059;SDS011;26811;53.160;8.202;2023-11-19T13:08:40;23.27;;;2.70;;
41059;SDS011;26811;53.160;8.202;2023-11-19T13:13:53;32.05;;;7.43;;
41059;SDS011;26811;53.160;8.202;2023-11-19T13:19:09;19.98;;;3.72;;
41059;SDS011;26811;53.160;8.202;2023-11-19T13:24:10;30.02;;;4.55;;
41059;SDS011;26811;53.160;8.202;2023-11-19T13:29:13;35.88;;;5.28;;
41059;SDS011;26811;53.160;8.202;2023-11-19T13:34:14;29.48;;;3.85;;
41059;SDS011;26811;53.160;8.202;2023-11-19T13:39:15;34.33;;;5.55;;
41059;SDS011;26811;53.160;8.202;2023-11-19T13:44:22;41.72;;;4.43;;
41059;SDS011;26811;53.160;8.202;2023-11-19T13:49:23;35.47;;;6.38;;
41059;SDS011;26811;53.160;8.202;2023-11-19T13:54:24;41.10;;;5.55;;
41059;SDS011;26811;53.160;8.202;2023-11-19T13:59:24;31.50;;;5.15;;
41059;SDS011;26811;53.160;8.202;2023-11-19T14:04:25;40.63;;;4.90;;
41059;SDS011;26811;53.160;8.202;2023-11-19T14:09:26;58.10;;;9.43;;
41059;SDS011;26811;53.160;8.202;2023-11-19T14:14:26;45.40;;;5.43;;
41059;SDS011;26811;53.160;8.202;2023-11-19T14:19:29;32.65;;;4.72;;
41059;SDS011;26811;53.160;8.202;2023-11-19T14:24:30;50.53;;;5.25;;
41059;SDS011;26811;53.160;8.202;2023-11-19T14:29:31;39.00;;;5.45;;
41059;SDS011;26811;53.160;8.202;2023-11-19T14:34:31;35.22;;;4.90;;
41059;SDS011;26811;53.160;8.202;2023-11-19T14:39:32;28.25;;;4.10;;
41059;SDS011;26811;53.160;8.202;2023-11-19T14:44:33;28.35;;;4.95;;
41059;SDS011;26811;53.160;8.202;2023-11-19T14:49:37;29.63;;;5.30;;
41059;SDS011;26811;53.160;8.202;2023-11-19T14:54:37;34.60;;;5.32;;
41059;SDS011;26811;53.160;8.202;2023-11-19T14:59:38;27.08;;;4.05;;
41059;SDS011;26811;53.160;8.202;2023-11-19T15:04:39;31.17;;;5.22;;
41059;SDS011;26811;53.160;8.202;2023-11-19T15:09:41;56.45;;;11.32;;
41059;SDS011;26811;53.160;8.202;2023-11-19T15:14:42;70.32;;;15.45;;
41059;SDS011;26811;53.160;8.202;2023-11-19T15:19:42;120.40;;;25.52;;
41059;SDS011;26811;53.160;8.202;2023-11-19T15:24:45;90.15;;;16.80;;
41059;SDS011;26811;53.160;8.202;2023-11-19T15:29:46;94.30;;;16.98;;
41059;SDS011;26811;53.160;8.202;2023-11-19T15:34:47;108.72;;;21.98;;
41059;SDS011;26811;53.160;8.202;2023-11-19T15:39:48;67.72;;;11.88;;
41059;SDS011;26811;53.160;8.202;2023-11-19T15:44:51;64.72;;;9.98;;
41059;SDS011;26811;53.160;8.202;2023-11-19T15:49:51;48.17;;;9.25;;
41059;SDS011;26811;53.160;8.202;2023-11-19T15:54:52;53.88;;;6.97;;
41059;SDS011;26811;53.160;8.202;2023-11-19T15:59:53;51.45;;;6.10;;
41059;SDS011;26811;53.160;8.202;2023-11-19T16:04:53;54.20;;;6.70;;
41059;SDS011;26811;53.160;8.202;2023-11-19T16:09:54;49.55;;;5.63;;
41059;SDS011;26811;53.160;8.202;2023-11-19T16:14:55;49.20;;;5.70;;
41059;SDS011;26811;53.160;8.202;2023-11-19T16:19:56;57.95;;;10.20;;
41059;SDS011;26811;53.160;8.202;2023-11-19T16:24:56;52.08;;;6.95;;
41059;SDS011;26811;53.160;8.202;2023-11-19T16:29:57;58.63;;;8.13;;
41059;SDS011;26811;53.160;8.202;2023-11-19T16:34:59;52.92;;;5.97;;
41059;SDS011;26811;53.160;8.202;2023-11-19T16:40:00;40.90;;;6.22;;
41059;SDS011;26811;53.160;8.202;2023-11-19T16:45:01;45.92;;;7.40;;
41059;SDS011;26811;53.160;8.202;2023-11-19T16:50:01;62.50;;;7.95;;
41059;SDS011;26811;53.160;8.202;2023-11-19T16:55:03;48.22;;;7.47;;
41059;SDS011;26811;53.160;8.202;2023-11-19T17:00:11;44.17;;;5.57;;
41059;SDS011;26811;53.160;8.202;2023-11-19T17:05:13;55.03;;;6.68;;
41059;SDS011;26811;53.160;8.202;2023-11-19T17:10:16;49.95;;;6.53;;
41059;SDS011;26811;53.160;8.202;2023-11-19T17:15:18;42.47;;;6.00;;
41059;SDS011;26811;53.160;8.202;2023-11-19T17:20:19;46.50;;;8.38;;
41059;SDS011;26811;53.160;8.202;2023-11-19T17:25:19;61.03;;;8.82;;
41059;SDS011;26811;53.160;8.202;2023-11-19T17:30:20;52.85;;;8.82;;
41059;SDS011;26811;53.160;8.202;2023-11-19T17:35:22;43.45;;;6.03;;
41059;SDS011;26811;53.160;8.202;2023-11-19T17:40:22;50.92;;;6.68;;
41059;SDS011;26811;53.160;8.202;2023-11-19T17:45:25;58.70;;;8.63;;
41059;SDS011;26811;53.160;8.202;2023-11-19T17:50:27;40.55;;;6.90;;
41059;SDS011;26811;53.160;8.202;2023-11-19T17:55:28;34.63;;;5.50;;
41059;SDS011;26811;53.160;8.202;2023-11-19T18:00:29;45.85;;;8.13;;
41059;SDS011;26811;53.160;8.202;2023-11-19T18:05:30;54.90;;;10.95;;
41059;SDS011;26811;53.160;8.202;2023-11-19T18:10:30;40.13;;;7.43;;
41059;SDS011;26811;53.160;8.202;2023-11-19T18:15:31;51.53;;;9.30;;
41059;SDS011;26811;53.160;8.202;2023-11-19T18:20:31;46.17;;;7.68;;
41059;SDS011;26811;53.160;8.202;2023-11-19T18:25:32;47.90;;;6.55;;
41059;SDS011;26811;53.160;8.202;2023-11-19T18:30:32;46.75;;;7.35;;
41059;SDS011;26811;53.160;8.202;2023-11-19T18:35:33;40.38;;;6.28;;
41059;SDS011;26811;53.160;8.202;2023-11-19T18:40:34;40.03;;;5.70;;
41059;SDS011;26811;53.160;8.202;2023-11-19T18:45:34;32.08;;;5.60;;
41059;SDS011;26811;53.160;8.202;2023-11-19T18:50:35;39.53;;;7.72;;
41059;SDS011;26811;53.160;8.202;2023-11-19T18:55:35;48.03;;;10.55;;
41059;SDS011;26811;53.160;8.202;2023-11-19T19:00:36;54.25;;;15.80;;
41059;SDS011;26811;53.160;8.202;2023-11-19T19:05:36;41.00;;;8.65;;
41059;SDS011;26811;53.160;8.202;2023-11-19T19:10:37;47.13;;;7.57;;
41059;SDS011;26811;53.160;8.202;2023-11-19T19:15:39;35.25;;;7.30;;
41059;SDS011;26811;53.160;8.202;2023-11-19T19:20:39;45.63;;;8.15;;
41059;SDS011;26811;53.160;8.202;2023-11-19T19:25:40;42.63;;;7.80;;
41059;SDS011;26811;53.160;8.202;2023-11-19T19:30:40;54.08;;;9.75;;
41059;SDS011;26811;53.160;8.202;2023-11-19T19:35:41;34.90;;;6.32;;
41059;SDS011;26811;53.160;8.202;2023-11-19T19:40:41;47.90;;;7.05;;
41059;SDS011;26811;53.160;8.202;2023-11-19T19:45:42;40.03;;;7.10;;
41059;SDS011;26811;53.160;8.202;2023-11-19T19:50:43;38.75;;;6.82;;
41059;SDS011;26811;53.160;8.202;2023-11-19T19:55:43;40.17;;;7.28;;
41059;SDS011;26811;53.160;8.202;2023-11-19T20:00:44;43.40;;;7.78;;
41059;SDS011;26811;53.160;8.202;2023-11-19T20:05:44;48.05;;;10.02;;
41059;SDS011;26811;53.160;8.202;2023-11-19T20:10:45;45.25;;;11.13;;
41059;SDS011;26811;53.160;8.202;2023-11-19T20:15:45;41.92;;;9.88;;
41059;SDS011;26811;53.160;8.202;2023-11-19T20:20:52;51.55;;;10.57;;
41059;SDS011;26811;53.160;8.202;2023-11-19T20:25:53;45.58;;;9.57;;
41059;SDS011;26811;53.160;8.202;2023-11-19T20:30:54;50.42;;;9.90;;
41059;SDS011;26811;53.160;8.202;2023-11-19T20:35:55;52.65;;;9.80;;
41059;SDS011;26811;53.160;8.202;2023-11-19T20:40:57;48.30;;;10.70;;
41059;SDS011;26811;53.160;8.202;2023-11-19T20:45:59;46.00;;;10.30;;
41059;SDS011;26811;53.160;8.202;2023-11-19T20:50:59;52.83;;;12.55;;
41059;SDS011;26811;53.160;8.202;2023-11-19T20:56:00;44.75;;;11.25;;
41059;SDS011;26811;53.160;8.202;2023-11-19T21:01:03;45.22;;;11.65;;
41059;SDS011;26811;53.160;8.202;2023-11-19T21:06:04;45.42;;;11.93;;
41059;SDS011;26811;53.160;8.202;2023-11-19T21:11:08;38.25;;;11.43;;
41059;SDS011;26811;53.160;8.202;2023-11-19T21:16:14;47.75;;;12.07;;
41059;SDS011;26811;53.160;8.202;2023-11-19T21:21:30;49.42;;;12.70;;
41059;SDS011;26811;53.160;8.202;2023-11-19T21:27:02;47.13;;;11.55;;
41059;SDS011;26811;53.160;8.202;2023-11-19T21:38:49;17.95;;;6.45;;
41059;SDS011;26811;53.160;8.202;2023-11-19T21:43:49;11.23;;;5.10;;
41059;SDS011;26811;53.160;8.202;2023-11-19T21:48:50;7.70;;;3.63;;
41059;SDS011;26811;53.160;8.202;2023-11-19T21:53:51;15.27;;;4.28;;
41059;SDS011;26811;53.160;8.202;2023-11-19T21:58:52;15.48;;;4.90;;
41059;SDS011;26811;53.160;8.202;2023-11-19T22:04:21;17.90;;;4.75;;
41059;SDS011;26811;53.160;8.202;2023-11-19T22:09:21;16.33;;;6.93;;
41059;SDS011;26811;53.160;8.202;2023-11-19T22:14:22;14.63;;;4.95;;
41059;SDS011;26811;53.160;8.202;2023-11-19T22:19:22;16.92;;;7.05;;
41059;SDS011;26811;53.160;8.202;2023-11-19T22:24:23;18.05;;;7.15;;
41059;SDS011;26811;53.160;8.202;2023-11-19T22:29:23;14.80;;;6.85;;
41059;SDS011;26811;53.160;8.202;2023-11-19T22:34:44;15.45;;;7.57;;
41059;SDS011;26811;53.160;8.202;2023-11-19T22:40:06;19.67;;;8.45;;
41059;SDS011;26811;53.160;8.202;2023-11-19T22:45:07;19.10;;;7.75;;
41059;SDS011;26811;53.160;8.202;2023-11-19T23:06:33;17.48;;;7.32;;
41059;SDS011;26811;53.160;8.202;2023-11-19T23:16:37;18.92;;;6.20;;
41059;SDS011;26811;53.160;8.202;2023-11-19T23:21:38;11.75;;;5.68;;
41059;SDS011;26811;53.160;8.202;2023-11-19T23:26:43;8.98;;;5.53;;
41059;SDS011;26811;53.160;8.202;2023-11-19T23:31:43;10.60;;;4.95;;
41059;SDS011;26811;53.160;8.202;2023-11-19T23:36:45;9.13;;;4.30;;
41059;SDS011;26811;53.160;8.202;2023-11-19T23:41:46;8.98;;;4.40;;
41059;SDS011;26811;53.160;8.202;2023-11-19T23:46:46;7.80;;;4.38;;
41059;SDS011;26811;53.160;8.202;2023-11-19T23:51:47;5.85;;;3.97;;
41059;SDS011;26811;53.160;8.202;2023-11-19T23:56:50;6.32;;;3.30;;
